22 de mayo de 2022

Hora Código Tiempo Temp. Visibilidad Nubes Viento METAR/SPECI
09:00
V
20 °C 10 km+ - 030°   030° 4 kt METAR LFBL 220700Z AUTO 03004KT CAVOK 20/17 Q1013 TEMPO VRB15G25KT SCT100TCU
08:30
V
20 °C 10 km+ - Var   Var 2 kt METAR LFBL 220630Z AUTO VRB02KT CAVOK 20/17 Q1014 TEMPO VRB15G25KT SCT100TCU
08:00
V
20 °C 10 km+ - 050°   050° 2 kt METAR LFBL 220600Z AUTO 05002KT CAVOK 20/17 Q1014 TEMPO VRB15G25KT SCT100TCU
07:30
V
19 °C 10 km+ - 030°   030° 3 kt METAR LFBL 220530Z AUTO 03003KT CAVOK 19/16 Q1014 NOSIG
07:00
V
19 °C 10 km+ - Var   Var 3 kt METAR LFBL 220500Z AUTO VRB03KT CAVOK 19/16 Q1014 NOSIG
06:30
V
19 °C 10 km+ - 050°   050° 3 kt METAR LFBL 220430Z AUTO 05003KT CAVOK 19/16 Q1014 NOSIG
06:00
V
19 °C 10 km+ - 050°   050° 3 kt METAR LFBL 220400Z AUTO 05003KT CAVOK 19/16 Q1014 NOSIG
05:30
V
19 °C 10 km+ - 060°   060° 3 kt METAR LFBL 220330Z AUTO 06003KT CAVOK 19/16 Q1014 NOSIG
05:00
V
20 °C 10 km+ - 080°   080° 3 kt METAR LFBL 220300Z AUTO 08003KT CAVOK 20/16 Q1014 NOSIG
04:30
V
20 °C 10 km+ - 050°   050° 3 kt METAR LFBL 220230Z AUTO 05003KT CAVOK 20/16 Q1014 NOSIG
04:00
V
20 °C 10 km+ - 050°   050° 4 kt METAR LFBL 220200Z AUTO 05004KT CAVOK 20/16 Q1014 NOSIG
03:30
V
20 °C 10 km+ - 050°   050° 4 kt METAR LFBL 220130Z AUTO 05004KT CAVOK 20/16 Q1014 NOSIG
03:00
V
21 °C 10 km+ - 040°   040° 5 kt METAR LFBL 220100Z AUTO 04005KT CAVOK 21/16 Q1015 NOSIG
02:30
V
21 °C 10 km+ - 050°   050° 4 kt METAR LFBL 220030Z AUTO 05004KT CAVOK 21/16 Q1015 NOSIG
02:00
V
21 °C 10 km+ - 060°   060° 6 kt METAR LFBL 220000Z AUTO 06006KT CAVOK 21/16 Q1015 NOSIG
01:30
V
21 °C 10 km+ - 060°   060° 6 kt METAR LFBL 212330Z AUTO 06006KT CAVOK 21/16 Q1015 NOSIG
01:00
V
22 °C 10 km+ - 050°   050° 5 kt METAR LFBL 212300Z AUTO 05005KT CAVOK 22/17 Q1015 NOSIG
00:30
V
22 °C 10 km+ - 010°   010° 8 kt METAR LFBL 212230Z AUTO 01008KT 340V040 CAVOK 22/17 Q1016 NOSIG
00:00
V
22 °C 10 km+ - 360°   360° 8 kt METAR LFBL 212200Z AUTO 36008KT CAVOK 22/17 Q1017 NOSIG

21 de mayo de 2022

Hora Código Tiempo Temp. Visibilidad Nubes Viento METAR/SPECI
23:30
V
23 °C 10 km+ - 360°   360° 8 kt METAR LFBL 212130Z AUTO 36008KT 330V030 CAVOK 23/17 Q1017 NOSIG
23:00
V
23 °C 10 km+ - 350°   350° 8 kt METAR LFBL 212100Z AUTO 35008KT 320V020 CAVOK 23/18 Q1017 NOSIG
22:30
V
24 °C 10 km+ - 350°   350° 6 kt METAR LFBL 212030Z AUTO 35006KT 310V040 CAVOK 24/18 Q1017 NOSIG
22:00
V
24 °C 10 km+ - 010°   010° 6 kt METAR LFBL 212000Z AUTO 01006KT 340V040 CAVOK 24/18 Q1016 NOSIG
21:30
V
25 °C 10 km+ - 010°   010° 6 kt METAR LFBL 211930Z AUTO 01006KT CAVOK 25/18 Q1017 NOSIG
21:00
V
25 °C 10 km+ - 010°   010° 6 kt METAR LFBL 211900Z AUTO 01006KT CAVOK 25/18 Q1017 NOSIG
20:30
V
26 °C 10 km+ - 340°   340° 6 kt METAR LFBL 211830Z AUTO 34006KT 320V030 CAVOK 26/18 Q1017 NOSIG
20:00
V
27 °C 10 km+ - 360°   360° 3 kt METAR LFBL 211800Z AUTO 36003KT 310V050 CAVOK 27/18 Q1017 NOSIG
19:30
V
27 °C 10 km+ - 340°   340° 4 kt METAR LFBL 211730Z AUTO 34004KT 320V020 CAVOK 27/18 Q1017 NOSIG
19:00
V
28 °C 10 km+ - 030°   030° 3 kt METAR LFBL 211700Z AUTO 03003KT 360V070 CAVOK 28/17 Q1017 NOSIG
18:30
V
28 °C 10 km+ - 030°   030° 5 kt METAR LFBL 211630Z AUTO 03005KT CAVOK 28/16 Q1017 NOSIG
18:00
V
29 °C 10 km+ - 040°   040° 5 kt METAR LFBL 211600Z AUTO 04005KT CAVOK 29/16 Q1018 NOSIG
17:30
V
28 °C 10 km+ - Var   Var 3 kt METAR LFBL 211530Z AUTO VRB03KT CAVOK 28/15 Q1018 NOSIG
17:00
V
29 °C 10 km+ - Var   Var 3 kt METAR LFBL 211500Z AUTO VRB03KT CAVOK 29/15 Q1018 NOSIG
16:30
V
29 °C 10 km+ - Var   Var 2 kt METAR LFBL 211430Z AUTO VRB02KT CAVOK 29/17 Q1019 NOSIG
16:00
V
29 °C 10 km+ - Var   Var 3 kt METAR LFBL 211400Z AUTO VRB03KT CAVOK 29/17 Q1019 NOSIG
15:30
V
28 °C 10 km+ - 040°   040° 3 kt METAR LFBL 211330Z AUTO 04003KT 360V110 CAVOK 28/15 Q1019 NOSIG
15:00
V
28 °C 10 km+ - Var   Var 3 kt METAR LFBL 211300Z AUTO VRB03KT CAVOK 28/16 Q1020 NOSIG
14:30
V
27 °C 10 km+ - 080°   080° 3 kt METAR LFBL 211230Z AUTO 08003KT 360V160 CAVOK 27/15 Q1020 NOSIG
14:00
V
27 °C 10 km+ - 090°   090° 4 kt METAR LFBL 211200Z AUTO 09004KT 360V160 CAVOK 27/16 Q1020 NOSIG
13:30
V
26 °C 10 km+ - 160°   160° 3 kt METAR LFBL 211130Z AUTO 16003KT 070V240 CAVOK 26/14 Q1020 NOSIG
13:00
V
26 °C 10 km+ - Var   Var 3 kt METAR LFBL 211100Z AUTO VRB03KT CAVOK 26/15 Q1021 NOSIG
12:30
V
25 °C 10 km+ - Var   Var 3 kt METAR LFBL 211030Z AUTO VRB03KT CAVOK 25/14 Q1021 NOSIG
12:00
V
25 °C 10 km+ - 090°   090° 3 kt METAR LFBL 211000Z AUTO 09003KT 020V100 CAVOK 25/15 Q1021 NOSIG
11:30
V
24 °C 10 km+ - Var   Var 3 kt METAR LFBL 210930Z AUTO VRB03KT CAVOK 24/15 Q1021 NOSIG
11:00
V
23 °C 10 km+ - 160°   160° 3 kt METAR LFBL 210900Z AUTO 16003KT 120V230 CAVOK 23/17 Q1022 NOSIG
10:30
V
22 °C 10 km+ - 120°   120° 4 kt METAR LFBL 210830Z AUTO 12004KT 050V160 CAVOK 22/16 Q1022 NOSIG
10:00
V
21 °C 10 km+ - 070°   070° 4 kt METAR LFBL 210800Z AUTO 07004KT 020V130 CAVOK 21/16 Q1022 NOSIG
09:30
V
20 °C 10 km+ - 100°   100° 5 kt METAR LFBL 210730Z AUTO 10005KT 060V120 CAVOK 20/16 Q1022 NOSIG
09:00
V
19 °C 10 km+ - 060°   060° 6 kt METAR LFBL 210700Z AUTO 06006KT 9999 FEW010 19/16 Q1022 NOSIG
08:30
V
18 °C 10 km+ - 070°   070° 8 kt METAR LFBL 210630Z AUTO 07008KT CAVOK 18/15 Q1022 NOSIG
08:00
V
17 °C 10 km+ - 070°   070° 6 kt METAR LFBL 210600Z AUTO 07006KT CAVOK 17/15 Q1022 NOSIG
07:30
V
16 °C 10 km+ - 050°   050° 6 kt METAR LFBL 210530Z AUTO 05006KT CAVOK 16/15 Q1022 NOSIG
07:00
V
16 °C 10 km+ - 050°   050° 6 kt METAR LFBL 210500Z AUTO 05006KT CAVOK 16/15 Q1022 NOSIG
06:30
V
16 °C 10 km+ - 050°   050° 6 kt METAR LFBL 210430Z AUTO 05006KT CAVOK 16/14 Q1022 NOSIG
06:00
V
16 °C 10 km+ - 050°   050° 6 kt METAR LFBL 210400Z AUTO 05006KT CAVOK 16/14 Q1022 NOSIG
05:30
V
16 °C 10 km+ - 060°   060° 7 kt METAR LFBL 210330Z AUTO 06007KT CAVOK 16/14 Q1023 NOSIG
05:00
V
16 °C 10 km+ - 060°   060° 7 kt METAR LFBL 210300Z AUTO 06007KT CAVOK 16/14 Q1023 NOSIG
04:30
V
16 °C 10 km+ - 050°   050° 7 kt METAR LFBL 210230Z AUTO 05007KT CAVOK 16/14 Q1023 NOSIG
04:00
V
16 °C 10 km+ - 030°   030° 7 kt METAR LFBL 210200Z AUTO 03007KT CAVOK 16/14 Q1023 NOSIG
03:30
V
16 °C 10 km+ - 040°   040° 4 kt METAR LFBL 210130Z AUTO 04004KT CAVOK 16/14 Q1023 NOSIG
03:00
V
16 °C 10 km+ - 040°   040° 4 kt METAR LFBL 210100Z AUTO 04004KT CAVOK 16/14 Q1024 NOSIG
02:30
V
17 °C 10 km+ - 060°   060° 3 kt METAR LFBL 210030Z AUTO 06003KT CAVOK 17/14 Q1024 NOSIG
02:00
V
17 °C 10 km+ - 050°   050° 2 kt METAR LFBL 210000Z AUTO 05002KT CAVOK 17/15 Q1024 NOSIG
01:30
V
17 °C 10 km+ - 040°   040° 3 kt METAR LFBL 202330Z AUTO 04003KT CAVOK 17/15 Q1024 NOSIG
01:00
V
17 °C 10 km+ - 050°   050° 3 kt METAR LFBL 202300Z AUTO 05003KT 010V070 CAVOK 17/15 Q1024 NOSIG
00:30
V
18 °C 10 km+ - 010°   010° 7 kt METAR LFBL 202230Z AUTO 01007KT CAVOK 18/15 Q1024 NOSIG
00:00
V
18 °C 10 km+ - 360°   360° 6 kt METAR LFBL 202200Z AUTO 36006KT 330V030 CAVOK 18/16 Q1024 NOSIG

20 de mayo de 2022

Hora Código Tiempo Temp. Visibilidad Nubes Viento METAR/SPECI
23:30
V
19 °C 10 km+ - 330°   330° 5 kt METAR LFBL 202130Z AUTO 33005KT 310V010 CAVOK 19/15 Q1024 NOSIG
23:00
V
19 °C 10 km+ - 280°   280° 4 kt METAR LFBL 202100Z AUTO 28004KT CAVOK 19/16 Q1024 NOSIG
22:30
V
19 °C 10 km+ - 260°   260° 2 kt METAR LFBL 202030Z AUTO 26002KT CAVOK 19/16 Q1024 NOSIG
22:00
V
20 °C 10 km+ - 240°   240° 3 kt METAR LFBL 202000Z AUTO 24003KT CAVOK 20/16 Q1024 NOSIG
21:30
V
20 °C 10 km+ - 250°   250° 2 kt METAR LFBL 201930Z AUTO 25002KT 9999 FEW026 20/16 Q1024 NOSIG
21:00
V
21 °C 10 km+ 3.200 ft 280°   280° 3 kt METAR LFBL 201900Z AUTO 28003KT 9999 FEW026 BKN032 21/16 Q1024 NOSIG
20:30
V
22 °C 10 km+ - Var   Var 3 kt METAR LFBL 201830Z AUTO VRB03KT 9999 SCT025 SCT032 22/16 Q1023 NOSIG
20:00
V
22 °C 10 km+ - 260°   260° 5 kt METAR LFBL 201800Z AUTO 26005KT 230V290 9999 FEW028 22/16 Q1023 NOSIG
19:30
M
23 °C 10 km+ 2.700 ft 270°   270° 6 kt METAR LFBL 201730Z AUTO 27006KT 9999 BKN027 23/16 Q1023 NOSIG
19:00
V
23 °C 10 km+ - 280°   280° 8 kt METAR LFBL 201700Z AUTO 28008KT 250V310 9999 FEW026 23/16 Q1023 NOSIG
18:30
V
23 °C 10 km+ - 280°   280° 11 kt METAR LFBL 201630Z AUTO 28011KT 250V310 9999 FEW025 23/17 Q1023 NOSIG
18:00
V
23 °C 10 km+ - 280°   280° 12 kt METAR LFBL 201600Z AUTO 28012KT 9999 FEW027 23/17 Q1023 NOSIG
17:30
V
24 °C 10 km+ - 280°   280° 12 kt METAR LFBL 201530Z AUTO 28012KT 240V320 9999 FEW037 24/17 Q1023 NOSIG
17:00
V
26 °C 10 km+ - 260°   260° 12 kt METAR LFBL 201500Z AUTO 26012KT 230V300 CAVOK 26/15 Q1022 TEMPO SCT040TCU
16:30
V
25 °C 10 km+ - 250°   250° 13 26 kt METAR LFBL 201430Z AUTO 25013G26KT 210V280 9999 FEW048 25/14 Q1022 TEMPO SCT040TCU
16:00
V
25 °C 10 km+ - 230°   230° 17 kt METAR LFBL 201400Z AUTO 23017KT 9999 SCT045 25/14 Q1022 TEMPO SCT040TCU
15:30
V
25 °C 10 km+ - 240°   240° 14 kt METAR LFBL 201330Z AUTO 24014KT 210V280 CAVOK 25/14 Q1022 TEMPO SCT040TCU
15:00
V
25 °C 10 km+ - 220°   220° 13 kt METAR LFBL 201300Z AUTO 22013KT 190V260 CAVOK 25/15 Q1022 TEMPO SCT040TCU
14:30
V
25 °C 10 km+ - 220°   220° 13 kt METAR LFBL 201230Z AUTO 22013KT 190V250 CAVOK 25/14 Q1022 TEMPO SCT040TCU
14:00
V
24 °C 10 km+ - 210°   210° 15 kt METAR LFBL 201200Z AUTO 21015KT CAVOK 24/14 Q1022 TEMPO SCT040TCU BECMG 28014KT
13:30
V
24 °C 10 km+ - 200°   200° 13 kt METAR LFBL 201130Z AUTO 20013KT CAVOK 24/14 Q1022 BECMG 27012KT
13:00
V
24 °C 10 km+ - 200°   200° 14 kt METAR LFBL 201100Z AUTO 20014KT CAVOK 24/14 Q1021 BECMG 27012KT
12:30
V
25 °C 10 km+ - 200°   200° 12 kt METAR LFBL 201030Z AUTO 20012KT CAVOK 25/14 Q1022 BECMG 27012KT
12:00
V
24 °C 10 km+ - 190°   190° 15 kt METAR LFBL 201000Z AUTO 19015KT CAVOK 24/13 Q1021 NOSIG
11:30
V
24 °C 10 km+ - 190°   190° 14 kt METAR LFBL 200930Z AUTO 19014KT CAVOK 24/12 Q1021 NOSIG
11:00
V
24 °C 10 km+ - 200°   200° 14 kt METAR LFBL 200900Z AUTO 20014KT CAVOK 24/12 Q1021 NOSIG
10:30
V
23 °C 10 km+ - 190°   190° 11 kt METAR LFBL 200830Z AUTO 19011KT CAVOK 23/12 Q1021 NOSIG
10:00
V
23 °C 10 km+ - 170°   170° 11 kt METAR LFBL 200800Z AUTO 17011KT 150V210 CAVOK 23/11 Q1020 NOSIG
09:30
V
22 °C 10 km+ - 170°   170° 10 kt METAR LFBL 200730Z AUTO 17010KT 120V200 CAVOK 22/10 Q1020 NOSIG
09:00
V
21 °C 10 km+ - 160°   160° 8 kt METAR LFBL 200700Z AUTO 16008KT 130V210 CAVOK 21/10 Q1020 NOSIG
Datos más antiguos

Descarga nuestra aplicación

Acceso fácil a todo el tiempo de la aviación en tu teléfono móvil y tableta.
Con muchas funciones no disponibles en el sitio web, como la compatibilidad sin conexión y una lista personal de aeropuertos.

Nosotros y terceros seguimos tu comportamiento en Internet en nuestro sitio web con cookies. Si continúas, asumimos que estás de acuerdo con nuestra política de cookies. Más información